LKPI weather

Pribyslav Airport
Pribyslav, Vysočina Region, Czechia

Public forecast

Using degrees Celsius for public forecast. Weather courtesy of forecast.io.

METAR (pilot weather report)

Closest report is Pardubice Airport, 26.0 nm (48.1 km) N. Retrieved 2019/09/22 21:00 UTC (25 minutes ago):

LKPD 222100Z 08003KT CAVOK 11/04 Q1013 RMK BLU

TAF (pilot weather forecast)

Closest forecast is Pardubice Airport, 26.0 nm (48.1 km) N. Retrieved 2019/09/22 18:00 UTC (3 hours ago):

TAF LKPD 221700Z 2218/2318 11006KT CAVOK BECMG 2313/2316 VRB02KT BKN035